PWSweather.com
Personal Weather Stations
Station Observations

AwhituWaiuku, CA 268400

Lat: -37.058, Lon: -174.6346

Elevation: 250

Station Type: Personal

http://www.weather-display.com/windy/gb/grahamsbeach.htm

High Low Average
Temperature 66.5°F19.2°F 53.4°F11.9°F 60.6°F15.9°F
Dew Point 65.9°F18.8°F 52.6°F11.4°F 59.7°F15.4°F
Winds 19.3 mph WNW31.1 mph WNW Calm Calm 7.4 mph 11.9 mph
Wind Gusts 22.0 mph35.4 mph -- 9.4 mph15.1 mph
Humidity 98% 85% 97%
Pressure 30.17 in1021.70 in 30.10 in1019.30 in -
Precipitation 0.02 in0.50 in - -
Hour Temp Dew Point Humidity Winds Wind Gusts Pressure Precip Precip Rate Daily Precip Total
12:00 AM 57.1°F13.9°C 52.6°F11.4°C 85% 1.8 mph WSW2.9 kmh WSW 2.0 mph3.2 kmh 30.17 in1021.7 mb 0.00 in0.0 mm 0.00 in/hr0.0 mm/hr 0.00 in0.0 mm
12:30 AM 57.1°F13.9°C 53.0°F11.7°C 86% 1.9 mph WSW3.1 kmh WSW 4.0 mph6.4 kmh 30.17 in1021.7 mb 0.00 in0.0 mm 0.00 in/hr0.0 mm/hr 0.00 in0.0 mm
01:00 AM 57.0°F13.9°C 53.5°F11.9°C 88% 0.4 mph W0.6 kmh W 2.0 mph3.2 kmh 30.16 in1021.3 mb 0.00 in0.0 mm 0.00 in/hr0.0 mm/hr 0.00 in0.0 mm
01:30 AM 56.6°F13.7°C 53.4°F11.9°C 89% Calm Calm -- 30.16 in1021.3 mb 0.00 in0.0 mm 0.00 in/hr0.0 mm/hr 0.00 in0.0 mm
02:00 AM 56.0°F13.3°C 53.4°F11.9°C 91% Calm Calm -- 30.16 in1021.3 mb 0.00 in0.0 mm 0.00 in/hr0.0 mm/hr 0.00 in0.0 mm
02:30 AM 56.1°F13.4°C 55.0°F12.8°C 96% Calm Calm -- 30.16 in1021.3 mb 0.00 in0.0 mm 0.00 in/hr0.0 mm/hr 0.00 in0.0 mm
03:00 AM 55.1°F12.8°C 54.5°F12.5°C 98% Calm Calm -- 30.14 in1020.7 mb 0.00 in0.0 mm 0.00 in/hr0.0 mm/hr 0.00 in0.0 mm
03:30 AM 54.8°F12.7°C 54.2°F12.3°C 98% Calm Calm -- 30.14 in1020.7 mb 0.00 in0.0 mm 0.00 in/hr0.0 mm/hr 0.00 in0.0 mm
04:00 AM 54.3°F12.4°C 53.7°F12.1°C 98% Calm Calm -- 30.13 in1020.3 mb 0.00 in0.0 mm 0.00 in/hr0.0 mm/hr 0.00 in0.0 mm
04:30 AM 53.4°F11.9°C 52.8°F11.6°C 98% 0.6 mph SE1.0 kmh SE -- 30.14 in1020.7 mb 0.00 in0.0 mm 0.00 in/hr0.0 mm/hr 0.00 in0.0 mm
05:00 AM 54.3°F12.4°C 53.7°F12.1°C 98% 4.1 mph E6.6 kmh E 6.0 mph9.7 kmh 30.13 in1020.3 mb 0.00 in0.0 mm 0.00 in/hr0.0 mm/hr 0.00 in0.0 mm
05:30 AM 53.6°F12.0°C 53.0°F11.7°C 98% Calm Calm -- 30.14 in1020.7 mb 0.00 in0.0 mm 0.00 in/hr0.0 mm/hr 0.00 in0.0 mm
06:00 AM 54.8°F12.7°C 54.2°F12.3°C 98% Calm Calm -- 30.14 in1020.7 mb 0.00 in0.0 mm 0.00 in/hr0.0 mm/hr 0.00 in0.0 mm
06:30 AM 54.6°F12.6°C 54.0°F12.2°C 98% Calm Calm -- 30.15 in1021.0 mb 0.00 in0.0 mm 0.00 in/hr0.0 mm/hr 0.00 in0.0 mm
07:00 AM 54.6°F12.6°C 54.0°F12.2°C 98% 2.8 mph E4.5 kmh E 6.0 mph9.7 kmh 30.15 in1021.0 mb 0.00 in0.0 mm 0.00 in/hr0.0 mm/hr 0.00 in0.0 mm
07:30 AM 54.5°F12.5°C 53.9°F12.2°C 98% Calm Calm -- 30.15 in1021.0 mb 0.00 in0.0 mm 0.00 in/hr0.0 mm/hr 0.00 in0.0 mm
08:00 AM 56.0°F13.3°C 55.5°F13.1°C 98% 2.9 mph NNE4.7 kmh NNE 4.0 mph6.4 kmh 30.15 in1021.0 mb 0.00 in0.0 mm 0.00 in/hr0.0 mm/hr 0.00 in0.0 mm
08:30 AM 55.8°F13.2°C 55.2°F12.9°C 98% 2.5 mph E4.0 kmh E 2.0 mph3.2 kmh 30.16 in1021.3 mb 0.00 in0.0 mm 0.00 in/hr0.0 mm/hr 0.00 in0.0 mm
09:00 AM 58.9°F14.9°C 58.4°F14.7°C 98% Calm Calm -- 30.15 in1021.0 mb 0.00 in0.0 mm 0.00 in/hr0.0 mm/hr 0.00 in0.0 mm
09:30 AM 61.4°F16.3°C 60.8°F16.0°C 98% 6.8 mph NW10.9 kmh NW 10.0 mph16.1 kmh 30.16 in1021.3 mb 0.00 in0.0 mm 0.00 in/hr0.0 mm/hr 0.00 in0.0 mm
10:00 AM 63.5°F17.5°C 62.9°F17.2°C 98% 11.8 mph NW19.0 kmh NW 14.0 mph22.5 kmh 30.15 in1021.0 mb 0.00 in0.0 mm 0.00 in/hr0.0 mm/hr 0.00 in0.0 mm
10:30 AM 63.0°F17.2°C 62.4°F16.9°C 98% 17.1 mph NW27.5 kmh NW 18.0 mph29.0 kmh 30.15 in1021.0 mb 0.00 in0.0 mm 0.00 in/hr0.0 mm/hr 0.00 in0.0 mm
11:01 AM 63.9°F17.7°C 63.4°F17.4°C 98% 12.5 mph NW20.1 kmh NW 21.0 mph33.8 kmh 30.14 in1020.7 mb 0.00 in0.0 mm 0.00 in/hr0.0 mm/hr 0.00 in0.0 mm
11:30 AM 64.9°F18.3°C 64.3°F17.9°C 98% 19.3 mph WNW31.1 kmh WNW 22.0 mph35.4 kmh 30.13 in1020.3 mb 0.01 in0.3 mm 0.02 in/hr0.5 mm/hr 0.01 in0.3 mm
12:01 PM 65.0°F18.3°C 64.4°F18.0°C 98% 16.0 mph NW25.7 kmh NW 21.0 mph33.8 kmh 30.13 in1020.3 mb 0.00 in0.0 mm 0.00 in/hr0.0 mm/hr 0.01 in0.3 mm
12:30 PM 66.5°F19.2°C 65.9°F18.8°C 98% 18.2 mph W29.3 kmh W 21.0 mph33.8 kmh 30.12 in1020.0 mb 0.00 in0.0 mm 0.00 in/hr0.0 mm/hr 0.01 in0.3 mm
01:01 PM 65.2°F18.4°C 64.6°F18.1°C 98% 15.4 mph W24.8 kmh W 22.0 mph35.4 kmh 30.12 in1020.0 mb 0.01 in0.3 mm 0.02 in/hr0.5 mm/hr 0.02 in0.5 mm
01:31 PM 65.7°F18.7°C 65.1°F18.4°C 98% 15.7 mph W25.3 kmh W 21.0 mph33.8 kmh 30.12 in1020.0 mb 0.00 in0.0 mm 0.00 in/hr0.0 mm/hr 0.02 in0.5 mm
02:01 PM 65.6°F18.7°C 65.0°F18.3°C 98% 6.2 mph WSW10.0 kmh WSW 8.0 mph12.9 kmh 30.11 in1019.6 mb 0.00 in0.0 mm 0.00 in/hr0.0 mm/hr 0.02 in0.5 mm
02:31 PM 65.9°F18.8°C 65.3°F18.5°C 98% 6.6 mph WNW10.6 kmh WNW 11.0 mph17.7 kmh 30.11 in1019.6 mb 0.00 in0.0 mm 0.00 in/hr0.0 mm/hr 0.02 in0.5 mm
03:01 PM 66.1°F18.9°C 65.6°F18.7°C 98% 1.2 mph W1.9 kmh W 4.0 mph6.4 kmh 30.11 in1019.6 mb 0.00 in0.0 mm 0.00 in/hr0.0 mm/hr 0.02 in0.5 mm
03:30 PM 65.3°F18.5°C 64.7°F18.2°C 98% 6.8 mph W10.9 kmh W 8.0 mph12.9 kmh 30.11 in1019.6 mb 0.00 in0.0 mm 0.00 in/hr0.0 mm/hr 0.02 in0.5 mm
04:01 PM 65.6°F18.7°C 65.1°F18.4°C 98% 17.5 mph W28.2 kmh W 21.0 mph33.8 kmh 30.10 in1019.3 mb 0.00 in0.0 mm 0.00 in/hr0.0 mm/hr 0.02 in0.5 mm
04:31 PM 65.0°F18.3°C 64.4°F18.0°C 98% 16.7 mph W26.9 kmh W 18.0 mph29.0 kmh 30.10 in1019.3 mb 0.00 in0.0 mm 0.00 in/hr0.0 mm/hr 0.02 in0.5 mm
05:01 PM 64.1°F17.8°C 63.5°F17.5°C 98% 14.1 mph W22.7 kmh W 16.0 mph25.7 kmh 30.10 in1019.3 mb 0.00 in0.0 mm 0.00 in/hr0.0 mm/hr 0.02 in0.5 mm
05:30 PM 63.5°F17.5°C 62.9°F17.2°C 98% 12.6 mph WNW20.3 kmh WNW 17.0 mph27.4 kmh 30.11 in1019.6 mb 0.00 in0.0 mm 0.00 in/hr0.0 mm/hr 0.02 in0.5 mm
06:01 PM 63.8°F17.7°C 63.2°F17.3°C 98% 13.6 mph W21.9 kmh W 16.0 mph25.7 kmh 30.11 in1019.6 mb 0.00 in0.0 mm 0.00 in/hr0.0 mm/hr 0.02 in0.5 mm
06:30 PM 63.5°F17.5°C 62.9°F17.2°C 98% 11.4 mph W18.3 kmh W 14.0 mph22.5 kmh 30.12 in1020.0 mb 0.00 in0.0 mm 0.00 in/hr0.0 mm/hr 0.02 in0.5 mm
07:01 PM 63.1°F17.3°C 62.5°F16.9°C 98% 11.2 mph W18.0 kmh W 14.0 mph22.5 kmh 30.12 in1020.0 mb 0.00 in0.0 mm 0.00 in/hr0.0 mm/hr 0.02 in0.5 mm
07:30 PM 63.0°F17.2°C 62.4°F16.9°C 98% 13.8 mph WNW22.2 kmh WNW 16.0 mph25.7 kmh 30.12 in1020.0 mb 0.00 in0.0 mm 0.00 in/hr0.0 mm/hr 0.02 in0.5 mm
08:01 PM 63.2°F17.3°C 62.6°F17.0°C 98% 12.2 mph W19.6 kmh W 14.0 mph22.5 kmh 30.13 in1020.3 mb 0.00 in0.0 mm 0.00 in/hr0.0 mm/hr 0.02 in0.5 mm
08:31 PM 63.0°F17.2°C 62.4°F16.9°C 98% 9.0 mph W14.5 kmh W 10.0 mph16.1 kmh 30.13 in1020.3 mb 0.00 in0.0 mm 0.00 in/hr0.0 mm/hr 0.02 in0.5 mm
09:01 PM 63.2°F17.3°C 62.6°F17.0°C 98% 12.9 mph W20.8 kmh W 15.0 mph24.1 kmh 30.13 in1020.3 mb 0.00 in0.0 mm 0.00 in/hr0.0 mm/hr 0.02 in0.5 mm
09:30 PM 63.2°F17.3°C 62.6°F17.0°C 98% 10.0 mph WNW16.1 kmh WNW 13.0 mph20.9 kmh 30.13 in1020.3 mb 0.00 in0.0 mm 0.00 in/hr0.0 mm/hr 0.02 in0.5 mm
10:01 PM 62.5°F16.9°C 61.9°F16.6°C 98% 10.6 mph WNW17.1 kmh WNW 16.0 mph25.7 kmh 30.13 in1020.3 mb 0.00 in0.0 mm 0.00 in/hr0.0 mm/hr 0.02 in0.5 mm
10:30 PM 62.2°F16.8°C 61.6°F16.4°C 98% 6.3 mph WNW10.1 kmh WNW 8.0 mph12.9 kmh 30.13 in1020.3 mb 0.00 in0.0 mm 0.00 in/hr0.0 mm/hr 0.02 in0.5 mm
11:01 PM 62.1°F16.7°C 61.5°F16.4°C 98% 5.5 mph W8.9 kmh W 7.0 mph11.3 kmh 30.13 in1020.3 mb 0.00 in0.0 mm 0.00 in/hr0.0 mm/hr 0.02 in0.5 mm
11:30 PM 62.2°F16.8°C 61.6°F16.4°C 98% 8.5 mph WNW13.7 kmh WNW 10.0 mph16.1 kmh 30.12 in1020.0 mb 0.00 in0.0 mm 0.00 in/hr0.0 mm/hr 0.02 in0.5 mm